sensor_id;sensor_type;location;lat;lon;timestamp;pressure;altitude;pressure_sealevel;temperature;humidity
29433;BME280;16405;53.964;13.448;2023-05-20T00:00:28;102436.94;;;8.37;84.56
29433;BME280;16405;53.964;13.448;2023-05-20T00:02:54;102437.84;;;8.34;86.37
29433;BME280;16405;53.964;13.448;2023-05-20T00:05:22;102445.72;;;8.31;90.29
29433;BME280;16405;53.964;13.448;2023-05-20T00:07:48;102444.81;;;8.35;91.72
29433;BME280;16405;53.964;13.448;2023-05-20T00:10:14;102443.03;;;8.44;92.63
29433;BME280;16405;53.964;13.448;2023-05-20T00:12:40;102429.84;;;8.50;90.19
29433;BME280;16405;53.964;13.448;2023-05-20T00:15:06;102437.66;;;8.53;89.65
29433;BME280;16405;53.964;13.448;2023-05-20T00:17:32;102438.56;;;8.52;91.07
29433;BME280;16405;53.964;13.448;2023-05-20T00:19:58;102441.19;;;8.52;92.60
29433;BME280;16405;53.964;13.448;2023-05-20T00:22:25;102448.16;;;8.56;91.84
29433;BME280;16405;53.964;13.448;2023-05-20T00:24:51;102442.91;;;8.56;93.86
29433;BME280;16405;53.964;13.448;2023-05-20T00:27:16;102442.91;;;8.56;92.94
29433;BME280;16405;53.964;13.448;2023-05-20T00:29:42;102438.47;;;8.59;90.95
29433;BME280;16405;53.964;13.448;2023-05-20T00:32:08;102434.97;;;8.60;89.08
29433;BME280;16405;53.964;13.448;2023-05-20T00:34:34;102434.16;;;8.55;87.69
29433;BME280;16405;53.964;13.448;2023-05-20T00:37:00;102431.59;;;8.48;88.40
29433;BME280;16405;53.964;13.448;2023-05-20T00:39:26;102424.66;;;8.44;88.39
29433;BME280;16405;53.964;13.448;2023-05-20T00:41:51;102433.44;;;8.41;86.83
29433;BME280;16405;53.964;13.448;2023-05-20T00:44:17;102427.34;;;8.34;87.40
29433;BME280;16405;53.964;13.448;2023-05-20T00:46:45;102427.34;;;8.31;88.82
29433;BME280;16405;53.964;13.448;2023-05-20T00:49:12;102436.19;;;8.27;91.49
29433;BME280;16405;53.964;13.448;2023-05-20T00:51:38;102430.88;;;8.29;90.28
29433;BME280;16405;53.964;13.448;2023-05-20T00:54:05;102423.06;;;8.27;89.04
29433;BME280;16405;53.964;13.448;2023-05-20T00:56:31;102431.78;;;8.28;88.96
29433;BME280;16405;53.964;13.448;2023-05-20T00:58:57;102432.66;;;8.28;87.84
29433;BME280;16405;53.964;13.448;2023-05-20T01:01:23;102434.47;;;8.23;87.76
29433;BME280;16405;53.964;13.448;2023-05-20T01:03:48;102426.59;;;8.18;88.98
29433;BME280;16405;53.964;13.448;2023-05-20T01:06:15;102424.88;;;8.17;87.59
29433;BME280;16405;53.964;13.448;2023-05-20T01:08:41;102420.53;;;8.15;86.76
29433;BME280;16405;53.964;13.448;2023-05-20T01:11:25;102422.31;;;8.10;85.63
29433;BME280;16405;53.964;13.448;2023-05-20T01:14:01;102412.75;;;8.04;85.33
29433;BME280;16405;53.964;13.448;2023-05-20T01:16:29;102416.31;;;7.98;84.81
29433;BME280;16405;53.964;13.448;2023-05-20T01:18:55;102419.81;;;7.96;85.17
29433;BME280;16405;53.964;13.448;2023-05-20T01:21:22;102423.34;;;7.95;85.39
29433;BME280;16405;53.964;13.448;2023-05-20T01:23:48;102421.63;;;7.91;85.62
29433;BME280;16405;53.964;13.448;2023-05-20T01:26:14;102421.63;;;7.91;86.19
29433;BME280;16405;53.964;13.448;2023-05-20T01:28:41;102413.75;;;7.89;85.55
29433;BME280;16405;53.964;13.448;2023-05-20T01:31:22;102416.38;;;7.88;85.67
29433;BME280;16405;53.964;13.448;2023-05-20T01:33:54;102420.78;;;7.86;86.98
29433;BME280;16405;53.964;13.448;2023-05-20T01:36:21;102419.91;;;7.85;86.09
29433;BME280;16405;53.964;13.448;2023-05-20T01:38:48;102426.06;;;7.83;85.07
29433;BME280;16405;53.964;13.448;2023-05-20T01:41:15;102426.09;;;7.75;86.49
29433;BME280;16405;53.964;13.448;2023-05-20T01:43:42;102425.25;;;7.73;86.42
29433;BME280;16405;53.964;13.448;2023-05-20T01:46:09;102433.16;;;7.70;86.46
29433;BME280;16405;53.964;13.448;2023-05-20T01:48:35;102426.19;;;7.66;86.91
29433;BME280;16405;53.964;13.448;2023-05-20T01:51:00;102428.81;;;7.66;86.52
29433;BME280;16405;53.964;13.448;2023-05-20T01:53:26;102420.97;;;7.63;86.67
29433;BME280;16405;53.964;13.448;2023-05-20T01:55:52;102426.22;;;7.61;87.67
29433;BME280;16405;53.964;13.448;2023-05-20T01:58:18;102422.75;;;7.60;87.72
29433;BME280;16405;53.964;13.448;2023-05-20T02:00:44;102426.22;;;7.61;88.25
29433;BME280;16405;53.964;13.448;2023-05-20T02:03:10;102427.13;;;7.55;89.22
29433;BME280;16405;53.964;13.448;2023-05-20T02:05:36;102428.84;;;7.59;91.18
29433;BME280;16405;53.964;13.448;2023-05-20T02:08:01;102434.06;;;7.64;91.50
29433;BME280;16405;53.964;13.448;2023-05-20T02:10:27;102427.94;;;7.67;90.15
29433;BME280;16405;53.964;13.448;2023-05-20T02:12:53;102433.16;;;7.70;90.07
29433;BME280;16405;53.964;13.448;2023-05-20T02:15:19;102427.09;;;7.65;88.93
29433;BME280;16405;53.964;13.448;2023-05-20T02:17:45;102422.75;;;7.59;87.96
29433;BME280;16405;53.964;13.448;2023-05-20T02:20:11;102421.06;;;7.47;87.83
29433;BME280;16405;53.964;13.448;2023-05-20T02:22:38;102423.72;;;7.43;87.24
29433;BME280;16405;53.964;13.448;2023-05-20T02:25:05;102421.16;;;7.33;87.14
29433;BME280;16405;53.964;13.448;2023-05-20T02:27:31;102422.09;;;7.26;87.64
29433;BME280;16405;53.964;13.448;2023-05-20T02:29:57;102423.84;;;7.24;86.72
29433;BME280;16405;53.964;13.448;2023-05-20T02:32:22;102428.25;;;7.16;86.41
29433;BME280;16405;53.964;13.448;2023-05-20T02:34:53;102430.91;;;7.05;86.37
29433;BME280;16405;53.964;13.448;2023-05-20T02:37:19;102427.44;;;7.03;87.06
29433;BME280;16405;53.964;13.448;2023-05-20T02:39:46;102418.75;;;6.92;88.09
29433;BME280;16405;53.964;13.448;2023-05-20T02:42:12;102415.22;;;6.97;89.03
29433;BME280;16405;53.964;13.448;2023-05-20T02:44:37;102416.09;;;7.04;92.14
29433;BME280;16405;53.964;13.448;2023-05-20T02:47:03;102417.78;;;7.11;92.84
29433;BME280;16405;53.964;13.448;2023-05-20T02:49:29;102429.09;;;7.16;91.44
29433;BME280;16405;53.964;13.448;2023-05-20T02:51:55;102430.00;;;7.12;89.82
29433;BME280;16405;53.964;13.448;2023-05-20T02:54:21;102432.66;;;7.09;89.24
29433;BME280;16405;53.964;13.448;2023-05-20T02:56:47;102430.94;;;7.01;87.62
29433;BME280;16405;53.964;13.448;2023-05-20T02:59:13;102430.94;;;6.97;87.79
29433;BME280;16405;53.964;13.448;2023-05-20T03:01:39;102434.41;;;7.01;87.53
29433;BME280;16405;53.964;13.448;2023-05-20T03:04:05;102432.66;;;7.11;87.77
29433;BME280;16405;53.964;13.448;2023-05-20T03:06:30;102436.97;;;7.19;88.03
29433;BME280;16405;53.964;13.448;2023-05-20T03:08:57;102429.88;;;7.34;88.44
29433;BME280;16405;53.964;13.448;2023-05-20T03:11:23;102433.25;;;7.53;89.56
29433;BME280;16405;53.964;13.448;2023-05-20T03:13:50;102431.41;;;7.69;90.85
29433;BME280;16405;53.964;13.448;2023-05-20T03:16:16;102430.38;;;7.88;91.95
29433;BME280;16405;53.964;13.448;2023-05-20T03:18:42;102432.00;;;8.05;91.12
29433;BME280;16405;53.964;13.448;2023-05-20T03:21:08;102427.50;;;8.17;90.23
29433;BME280;16405;53.964;13.448;2023-05-20T03:23:34;102433.47;;;8.33;91.32
29433;BME280;16405;53.964;13.448;2023-05-20T03:26:00;102447.41;;;8.45;89.94
29433;BME280;16405;53.964;13.448;2023-05-20T03:28:26;102447.31;;;8.51;88.89
29433;BME280;16405;53.964;13.448;2023-05-20T03:30:52;102436.81;;;8.54;88.13
29433;BME280;16405;53.964;13.448;2023-05-20T03:33:17;102441.09;;;8.59;87.33
29433;BME280;16405;53.964;13.448;2023-05-20T03:35:43;102442.84;;;8.62;86.61
29433;BME280;16405;53.964;13.448;2023-05-20T03:38:09;102446.28;;;8.67;86.29
29433;BME280;16405;53.964;13.448;2023-05-20T03:40:35;102439.19;;;8.74;85.75
29433;BME280;16405;53.964;13.448;2023-05-20T03:43:01;102449.66;;;8.78;86.38
29433;BME280;16405;53.964;13.448;2023-05-20T03:45:27;102437.34;;;8.83;85.68
29433;BME280;16405;53.964;13.448;2023-05-20T03:47:52;102448.66;;;8.89;86.18
29433;BME280;16405;53.964;13.448;2023-05-20T03:50:18;102453.84;;;8.95;86.08
29433;BME280;16405;53.964;13.448;2023-05-20T03:52:44;102452.88;;;9.00;85.71
29433;BME280;16405;53.964;13.448;2023-05-20T03:55:10;102452.81;;;9.07;85.71
29433;BME280;16405;53.964;13.448;2023-05-20T03:57:36;102450.97;;;9.13;85.39
29433;BME280;16405;53.964;13.448;2023-05-20T04:00:03;102450.88;;;9.21;84.95
29433;BME280;16405;53.964;13.448;2023-05-20T04:02:35;102457.75;;;9.30;84.96
29433;BME280;16405;53.964;13.448;2023-05-20T04:05:01;102450.69;;;9.35;84.87
29433;BME280;16405;53.964;13.448;2023-05-20T04:07:27;102455.81;;;9.44;84.28
29433;BME280;16405;53.964;13.448;2023-05-20T04:09:54;102452.25;;;9.48;85.34
29433;BME280;16405;53.964;13.448;2023-05-20T04:12:20;102457.38;;;9.57;84.63
29433;BME280;16405;53.964;13.448;2023-05-20T04:14:46;102458.13;;;9.65;84.58
29433;BME280;16405;53.964;13.448;2023-05-20T04:17:14;102449.28;;;9.70;84.36
29433;BME280;16405;53.964;13.448;2023-05-20T04:19:40;102457.84;;;9.84;85.00
29433;BME280;16405;53.964;13.448;2023-05-20T04:22:06;102458.44;;;10.00;85.35
29433;BME280;16405;53.964;13.448;2023-05-20T04:24:31;102459.94;;;10.18;85.44
29433;BME280;16405;53.964;13.448;2023-05-20T04:26:57;102464.69;;;10.47;83.56
29433;BME280;16405;53.964;13.448;2023-05-20T04:29:23;102459.97;;;10.64;82.90
29433;BME280;16405;53.964;13.448;2023-05-20T04:31:49;102471.75;;;10.90;82.69
29433;BME280;16405;53.964;13.448;2023-05-20T04:34:14;102477.34;;;11.18;82.68
29433;BME280;16405;53.964;13.448;2023-05-20T04:36:44;102480.72;;;11.64;80.58
29433;BME280;16405;53.964;13.448;2023-05-20T04:39:10;102480.44;;;11.76;80.04
29433;BME280;16405;53.964;13.448;2023-05-20T04:41:36;102474.56;;;12.02;78.08
29433;BME280;16405;53.964;13.448;2023-05-20T04:44:02;102471.22;;;12.30;78.00
29433;BME280;16405;53.964;13.448;2023-05-20T04:46:28;102477.91;;;12.76;77.50
29433;BME280;16405;53.964;13.448;2023-05-20T04:48:54;102485.56;;;13.17;75.70
29433;BME280;16405;53.964;13.448;2023-05-20T04:51:20;102483.84;;;13.45;74.62
29433;BME280;16405;53.964;13.448;2023-05-20T04:53:46;102518.06;;;16.23;70.86
29433;BME280;16405;53.964;13.448;2023-05-20T04:56:12;102521.81;;;19.65;61.46
29433;BME280;16405;53.964;13.448;2023-05-20T04:58:38;102533.16;;;21.62;55.25
29433;BME280;16405;53.964;13.448;2023-05-20T05:01:04;102534.44;;;22.25;53.79
29433;BME280;16405;53.964;13.448;2023-05-20T05:03:30;102546.41;;;23.60;49.64
29433;BME280;16405;53.964;13.448;2023-05-20T05:05:58;102527.66;;;22.05;50.39
29433;BME280;16405;53.964;13.448;2023-05-20T05:08:24;102521.09;;;20.84;52.45
29433;BME280;16405;53.964;13.448;2023-05-20T05:10:53;102520.53;;;20.19;53.94
29433;BME280;16405;53.964;13.448;2023-05-20T05:13:19;102532.00;;;19.75;55.39
29433;BME280;16405;53.964;13.448;2023-05-20T05:15:45;102512.34;;;18.77;56.50
29433;BME280;16405;53.964;13.448;2023-05-20T05:18:11;102517.38;;;18.66;57.36
29433;BME280;16405;53.964;13.448;2023-05-20T05:20:36;102517.00;;;18.21;58.52
29433;BME280;16405;53.964;13.448;2023-05-20T05:23:02;102509.78;;;18.06;59.33
29433;BME280;16405;53.964;13.448;2023-05-20T05:25:28;102494.63;;;16.53;61.72
29433;BME280;16405;53.964;13.448;2023-05-20T05:27:54;102504.09;;;16.81;62.54
29433;BME280;16405;53.964;13.448;2023-05-20T05:30:19;102505.28;;;16.74;62.73
29433;BME280;16405;53.964;13.448;2023-05-20T05:32:46;102502.47;;;16.36;63.16
29433;BME280;16405;53.964;13.448;2023-05-20T05:35:12;102502.41;;;16.58;63.82
29433;BME280;16405;53.964;13.448;2023-05-20T05:37:38;102502.66;;;16.72;63.69
29433;BME280;16405;53.964;13.448;2023-05-20T05:40:06;102508.25;;;16.66;63.36
29433;BME280;16405;53.964;13.448;2023-05-20T05:42:32;102495.28;;;16.79;62.72
29433;BME280;16405;53.964;13.448;2023-05-20T05:45:01;102497.16;;;16.36;64.43
29433;BME280;16405;53.964;13.448;2023-05-20T05:47:27;102492.66;;;15.04;68.22
29433;BME280;16405;53.964;13.448;2023-05-20T05:49:57;102485.28;;;14.37;71.43
29433;BME280;16405;53.964;13.448;2023-05-20T05:52:25;102475.97;;;13.72;73.43
29433;BME280;16405;53.964;13.448;2023-05-20T05:54:51;102484.28;;;13.88;73.82
29433;BME280;16405;53.964;13.448;2023-05-20T05:57:17;102484.09;;;13.94;74.50
29433;BME280;16405;53.964;13.448;2023-05-20T05:59:42;102479.91;;;14.13;75.47
29433;BME280;16405;53.964;13.448;2023-05-20T06:02:08;102485.38;;;13.82;74.75
29433;BME280;16405;53.964;13.448;2023-05-20T06:04:35;102480.59;;;13.65;75.18
29433;BME280;16405;53.964;13.448;2023-05-20T06:07:00;102481.91;;;13.80;75.79
29433;BME280;16405;53.964;13.448;2023-05-20T06:09:26;102475.66;;;13.54;76.04
29433;BME280;16405;53.964;13.448;2023-05-20T06:11:52;102488.13;;;13.78;76.40
29433;BME280;16405;53.964;13.448;2023-05-20T06:14:18;102481.75;;;14.11;75.95
29433;BME280;16405;53.964;13.448;2023-05-20T06:16:43;102489.56;;;14.41;76.02
29433;BME280;16405;53.964;13.448;2023-05-20T06:19:09;102487.38;;;14.02;75.32
29433;BME280;16405;53.964;13.448;2023-05-20T06:21:35;102484.56;;;14.07;75.02
29433;BME280;16405;53.964;13.448;2023-05-20T06:24:01;102487.25;;;14.05;76.07
29433;BME280;16405;53.964;13.448;2023-05-20T06:26:27;102479.75;;;13.91;76.41
29433;BME280;16405;53.964;13.448;2023-05-20T06:28:52;102482.25;;;13.96;76.50
29433;BME280;16405;53.964;13.448;2023-05-20T06:31:18;102485.53;;;14.04;76.89
29433;BME280;16405;53.964;13.448;2023-05-20T06:33:44;102482.16;;;13.99;77.66
29433;BME280;16405;53.964;13.448;2023-05-20T06:36:10;102479.88;;;13.60;76.28
29433;BME280;16405;53.964;13.448;2023-05-20T06:38:36;102474.88;;;13.51;77.28
29433;BME280;16405;53.964;13.448;2023-05-20T06:41:02;102475.31;;;13.65;77.55
29433;BME280;16405;53.964;13.448;2023-05-20T06:43:28;102475.63;;;13.83;75.97
29433;BME280;16405;53.964;13.448;2023-05-20T06:45:54;102469.06;;;13.94;76.37
29433;BME280;16405;53.964;13.448;2023-05-20T06:48:20;102468.78;;;13.75;74.66
29433;BME280;16405;53.964;13.448;2023-05-20T06:50:46;102467.34;;;13.93;75.34
29433;BME280;16405;53.964;13.448;2023-05-20T06:53:11;102467.28;;;13.95;74.67
29433;BME280;16405;53.964;13.448;2023-05-20T06:55:37;102462.38;;;14.09;74.74
29433;BME280;16405;53.964;13.448;2023-05-20T06:58:03;102455.72;;;13.98;74.21
29433;BME280;16405;53.964;13.448;2023-05-20T07:00:29;102453.38;;;13.88;74.33
29433;BME280;16405;53.964;13.448;2023-05-20T07:02:55;102453.78;;;13.76;73.61
29433;BME280;16405;53.964;13.448;2023-05-20T07:05:21;102460.72;;;13.80;73.57
29433;BME280;16405;53.964;13.448;2023-05-20T07:07:49;102465.75;;;13.88;73.74
29433;BME280;16405;53.964;13.448;2023-05-20T07:10:15;102459.44;;;13.92;73.17
29433;BME280;16405;53.964;13.448;2023-05-20T07:12:40;102460.66;;;13.82;73.33
29433;BME280;16405;53.964;13.448;2023-05-20T07:15:07;102451.69;;;13.86;73.12
29433;BME280;16405;53.964;13.448;2023-05-20T07:17:33;102455.84;;;13.93;73.23
29433;BME280;16405;53.964;13.448;2023-05-20T07:19:58;102457.72;;;13.91;72.56
29433;BME280;16405;53.964;13.448;2023-05-20T07:22:24;102452.66;;;14.10;73.17
29433;BME280;16405;53.964;13.448;2023-05-20T07:24:50;102456.88;;;14.15;72.92
29433;BME280;16405;53.964;13.448;2023-05-20T07:27:16;102452.00;;;14.03;72.74
29433;BME280;16405;53.964;13.448;2023-05-20T07:29:41;102455.84;;;13.93;72.29
29433;BME280;16405;53.964;13.448;2023-05-20T07:32:08;102463.03;;;13.91;73.07
29433;BME280;16405;53.964;13.448;2023-05-20T07:34:35;102447.84;;;13.96;72.99
29433;BME280;16405;53.964;13.448;2023-05-20T07:37:02;102453.38;;;14.15;73.32
29433;BME280;16405;53.964;13.448;2023-05-20T07:39:28;102447.72;;;14.26;72.61
29433;BME280;16405;53.964;13.448;2023-05-20T07:41:54;102451.19;;;14.28;72.83
29433;BME280;16405;53.964;13.448;2023-05-20T07:44:20;102447.69;;;14.01;71.76
29433;BME280;16405;53.964;13.448;2023-05-20T07:46:47;102453.31;;;14.16;72.50
29433;BME280;16405;53.964;13.448;2023-05-20T07:49:13;102448.25;;;14.10;72.49
29433;BME280;16405;53.964;13.448;2023-05-20T07:51:39;102447.59;;;14.29;72.30
29433;BME280;16405;53.964;13.448;2023-05-20T07:54:05;102451.63;;;14.41;71.26
29433;BME280;16405;53.964;13.448;2023-05-20T07:56:31;102443.91;;;14.33;71.57
29433;BME280;16405;53.964;13.448;2023-05-20T07:58:58;102447.47;;;14.07;71.43
29433;BME280;16405;53.964;13.448;2023-05-20T08:01:25;102454.31;;;14.39;70.91
29433;BME280;16405;53.964;13.448;2023-05-20T08:03:52;102445.63;;;14.34;70.56
29433;BME280;16405;53.964;13.448;2023-05-20T08:06:18;102455.00;;;14.71;70.42
29433;BME280;16405;53.964;13.448;2023-05-20T08:08:48;102458.34;;;15.00;69.83
29433;BME280;16405;53.964;13.448;2023-05-20T08:11:14;102448.44;;;15.27;68.52
29433;BME280;16405;53.964;13.448;2023-05-20T08:13:40;102459.34;;;15.43;68.03
29433;BME280;16405;53.964;13.448;2023-05-20T08:16:06;102455.13;;;15.59;67.48
29433;BME280;16405;53.964;13.448;2023-05-20T08:18:34;102453.16;;;15.64;66.78
29433;BME280;16405;53.964;13.448;2023-05-20T08:21:04;102456.03;;;15.59;66.42
29433;BME280;16405;53.964;13.448;2023-05-20T08:23:30;102452.19;;;15.45;66.53
29433;BME280;16405;53.964;13.448;2023-05-20T08:25:56;102454.47;;;15.76;66.20
29433;BME280;16405;53.964;13.448;2023-05-20T08:28:26;102462.50;;;15.96;65.94
29433;BME280;16405;53.964;13.448;2023-05-20T08:30:52;102446.38;;;16.01;65.22
29433;BME280;16405;53.964;13.448;2023-05-20T08:33:18;102450.28;;;15.92;65.36
29433;BME280;16405;53.964;13.448;2023-05-20T08:35:47;102433.72;;;15.86;65.72
29433;BME280;16405;53.964;13.448;2023-05-20T08:38:13;102446.22;;;15.84;65.81
29433;BME280;16405;53.964;13.448;2023-05-20T08:40:39;102432.22;;;15.56;65.70
29433;BME280;16405;53.964;13.448;2023-05-20T08:43:08;102437.97;;;15.46;65.83
29433;BME280;16405;53.964;13.448;2023-05-20T08:45:37;102427.78;;;15.57;67.47
29433;BME280;16405;53.964;13.448;2023-05-20T08:48:04;102426.03;;;16.00;67.18
29433;BME280;16405;53.964;13.448;2023-05-20T08:50:31;102438.75;;;16.14;66.75
29433;BME280;16405;53.964;13.448;2023-05-20T08:52:59;102430.56;;;15.76;65.59
29433;BME280;16405;53.964;13.448;2023-05-20T08:55:42;102425.78;;;16.06;64.99
29433;BME280;16405;53.964;13.448;2023-05-20T08:58:09;102428.03;;;15.95;65.65
29433;BME280;16405;53.964;13.448;2023-05-20T09:00:35;102420.72;;;15.79;64.88
29433;BME280;16405;53.964;13.448;2023-05-20T09:03:05;102427.56;;;16.26;64.73
29433;BME280;16405;53.964;13.448;2023-05-20T09:05:31;102425.91;;;16.24;64.34
29433;BME280;16405;53.964;13.448;2023-05-20T09:08:08;102426.16;;;16.17;63.50
29433;BME280;16405;53.964;13.448;2023-05-20T09:10:37;102428.88;;;15.75;64.20
29433;BME280;16405;53.964;13.448;2023-05-20T09:13:08;102429.19;;;15.66;65.89
29433;BME280;16405;53.964;13.448;2023-05-20T09:15:38;102430.97;;;16.09;65.37
29433;BME280;16405;53.964;13.448;2023-05-20T09:18:06;102429.22;;;15.88;65.26
29433;BME280;16405;53.964;13.448;2023-05-20T09:20:40;102425.50;;;15.92;65.76
29433;BME280;16405;53.964;13.448;2023-05-20T09:23:08;102429.25;;;16.29;64.92
29433;BME280;16405;53.964;13.448;2023-05-20T09:25:36;102424.91;;;16.06;64.01
29433;BME280;16405;53.964;13.448;2023-05-20T09:28:06;102429.63;;;16.19;64.97
29433;BME280;16405;53.964;13.448;2023-05-20T09:30:36;102446.13;;;16.48;64.34
29433;BME280;16405;53.964;13.448;2023-05-20T09:33:04;102437.53;;;16.21;64.16
29433;BME280;16405;53.964;13.448;2023-05-20T09:35:33;102439.31;;;16.00;64.50
29433;BME280;16405;53.964;13.448;2023-05-20T09:38:01;102430.81;;;16.12;65.04
29433;BME280;16405;53.964;13.448;2023-05-20T09:40:29;102435.19;;;15.72;65.90
29433;BME280;16405;53.964;13.448;2023-05-20T09:43:00;102431.94;;;15.64;66.47
29433;BME280;16405;53.964;13.448;2023-05-20T09:45:27;102421.41;;;16.05;65.76
29433;BME280;16405;53.964;13.448;2023-05-20T09:47:54;102429.97;;;16.12;66.31
29433;BME280;16405;53.964;13.448;2023-05-20T09:50:22;102429.16;;;16.10;64.91
29433;BME280;16405;53.964;13.448;2023-05-20T09:52:53;102428.81;;;15.97;65.48
29433;BME280;16405;53.964;13.448;2023-05-20T09:55:23;102423.31;;;16.02;65.81
29433;BME280;16405;53.964;13.448;2023-05-20T09:57:53;102428.97;;;15.94;65.47
29433;BME280;16405;53.964;13.448;2023-05-20T10:00:25;102423.50;;;16.17;65.22
29433;BME280;16405;53.964;13.448;2023-05-20T10:02:55;102430.28;;;16.45;65.01
29433;BME280;16405;53.964;13.448;2023-05-20T10:05:47;102430.66;;;16.56;64.34
29433;BME280;16405;53.964;13.448;2023-05-20T10:12:01;102423.50;;;15.97;64.86
29433;BME280;16405;53.964;13.448;2023-05-20T10:20:08;102420.41;;;17.07;63.16
29433;BME280;16405;53.964;13.448;2023-05-20T10:22:37;102422.03;;;16.72;62.29
29433;BME280;16405;53.964;13.448;2023-05-20T10:25:22;102415.28;;;16.44;61.62
29433;BME280;16405;53.964;13.448;2023-05-20T10:28:07;102421.50;;;16.64;62.13
29433;BME280;16405;53.964;13.448;2023-05-20T10:30:36;102418.00;;;16.82;61.80
29433;BME280;16405;53.964;13.448;2023-05-20T10:33:04;102429.63;;;17.00;61.08
29433;BME280;16405;53.964;13.448;2023-05-20T10:35:31;102420.91;;;16.96;60.45
29433;BME280;16405;53.964;13.448;2023-05-20T10:38:11;102426.22;;;16.96;60.18
29433;BME280;16405;53.964;13.448;2023-05-20T10:40:40;102410.81;;;16.84;60.07
29433;BME280;16405;53.964;13.448;2023-05-20T10:43:12;102405.59;;;16.62;60.52
29433;BME280;16405;53.964;13.448;2023-05-20T10:45:54;102403.75;;;17.21;60.39
29433;BME280;16405;53.964;13.448;2023-05-20T10:48:32;102413.09;;;17.49;58.98
29433;BME280;16405;53.964;13.448;2023-05-20T10:51:09;102408.31;;;17.55;58.73
29433;BME280;16405;53.964;13.448;2023-05-20T10:53:40;102400.56;;;17.51;58.16
29433;BME280;16405;53.964;13.448;2023-05-20T10:56:22;102392.75;;;17.29;58.11
29433;BME280;16405;53.964;13.448;2023-05-20T10:58:53;102393.44;;;17.51;58.14
29433;BME280;16405;53.964;13.448;2023-05-20T11:01:26;102389.84;;;17.52;58.40
29433;BME280;16405;53.964;13.448;2023-05-20T11:03:54;102384.81;;;17.82;58.00
29433;BME280;16405;53.964;13.448;2023-05-20T11:06:26;102398.25;;;17.97;57.08
29433;BME280;16405;53.964;13.448;2023-05-20T11:08:53;102396.00;;;17.89;57.52
29433;BME280;16405;53.964;13.448;2023-05-20T11:11:19;102389.66;;;17.92;57.45
29433;BME280;16405;53.964;13.448;2023-05-20T11:13:50;102383.22;;;18.13;56.72
29433;BME280;16405;53.964;13.448;2023-05-20T11:16:16;102389.88;;;18.04;56.16
29433;BME280;16405;53.964;13.448;2023-05-20T11:18:42;102380.94;;;17.88;57.54
29433;BME280;16405;53.964;13.448;2023-05-20T11:21:08;102376.94;;;17.97;57.47
29433;BME280;16405;53.964;13.448;2023-05-20T11:23:35;102376.63;;;18.03;56.51
29433;BME280;16405;53.964;13.448;2023-05-20T11:26:01;102381.59;;;18.44;56.81
29433;BME280;16405;53.964;13.448;2023-05-20T11:28:29;102374.97;;;18.84;55.97
29433;BME280;16405;53.964;13.448;2023-05-20T11:30:55;102386.28;;;18.56;55.35
29433;BME280;16405;53.964;13.448;2023-05-20T11:33:25;102370.34;;;18.55;55.81
29433;BME280;16405;53.964;13.448;2023-05-20T11:35:53;102369.94;;;18.62;55.62
29433;BME280;16405;53.964;13.448;2023-05-20T11:38:20;102372.66;;;18.78;55.72
29433;BME280;16405;53.964;13.448;2023-05-20T11:40:54;102360.72;;;18.85;55.62
29433;BME280;16405;53.964;13.448;2023-05-20T11:43:22;102357.59;;;18.93;55.76
29433;BME280;16405;53.964;13.448;2023-05-20T11:45:56;102352.06;;;18.80;54.92
29433;BME280;16405;53.964;13.448;2023-05-20T11:48:24;102363.25;;;18.38;55.81
29433;BME280;16405;53.964;13.448;2023-05-20T11:50:53;102356.69;;;18.61;56.52
29433;BME280;16405;53.964;13.448;2023-05-20T11:53:21;102357.00;;;18.55;55.76
29433;BME280;16405;53.964;13.448;2023-05-20T11:55:56;102351.16;;;18.48;56.03
29433;BME280;16405;53.964;13.448;2023-05-20T11:58:26;102357.53;;;18.61;55.70
29433;BME280;16405;53.964;13.448;2023-05-20T12:00:53;102356.59;;;18.29;56.15
29433;BME280;16405;53.964;13.448;2023-05-20T12:03:19;102350.09;;;18.51;55.85
29433;BME280;16405;53.964;13.448;2023-05-20T12:05:46;102367.06;;;18.83;55.12
29433;BME280;16405;53.964;13.448;2023-05-20T12:08:13;102379.47;;;19.16;55.07
29433;BME280;16405;53.964;13.448;2023-05-20T12:10:39;102364.09;;;18.72;54.71
29433;BME280;16405;53.964;13.448;2023-05-20T12:13:06;102372.88;;;18.74;53.99
29433;BME280;16405;53.964;13.448;2023-05-20T12:15:34;102365.50;;;18.12;55.07
29433;BME280;16405;53.964;13.448;2023-05-20T12:18:02;102371.53;;;18.16;55.08
29433;BME280;16405;53.964;13.448;2023-05-20T12:20:28;102369.91;;;17.96;55.11
29433;BME280;16405;53.964;13.448;2023-05-20T12:22:56;102369.94;;;17.77;55.64
29433;BME280;16405;53.964;13.448;2023-05-20T12:25:22;102370.81;;;18.30;55.16
29433;BME280;16405;53.964;13.448;2023-05-20T12:27:48;102379.88;;;18.43;54.40
29433;BME280;16405;53.964;13.448;2023-05-20T12:30:20;102370.09;;;17.93;55.56
29433;BME280;16405;53.964;13.448;2023-05-20T12:32:48;102362.22;;;17.90;55.24
29433;BME280;16405;53.964;13.448;2023-05-20T12:35:15;102372.28;;;17.85;54.54
29433;BME280;16405;53.964;13.448;2023-05-20T12:37:42;102368.66;;;17.86;54.11
29433;BME280;16405;53.964;13.448;2023-05-20T12:40:10;102360.50;;;18.06;54.75
29433;BME280;16405;53.964;13.448;2023-05-20T12:42:40;102363.53;;;17.81;54.61
29433;BME280;16405;53.964;13.448;2023-05-20T12:45:07;102363.63;;;18.14;55.04
29433;BME280;16405;53.964;13.448;2023-05-20T12:47:35;102359.25;;;18.29;54.52
29433;BME280;16405;53.964;13.448;2023-05-20T12:50:02;102354.09;;;17.93;54.64
29433;BME280;16405;53.964;13.448;2023-05-20T12:52:28;102350.13;;;18.17;55.68